Portada
METAR-TAF:

METAR-TAF

Aeroports :

Bhubaneswar, Índia

latitud: 20-14-40N, longitud: 85-49-04E, altitud: 45 m

Observació

L'informe es va fer fa 24 minuts, a les 15:00 UTC
Vent calma
Temperatura 23°C
Humitat 89%
Pressió 1014 hPa
Visibilitat: 2500 m
calitja

METAR: VEBS 151500Z 00000KT 2500 HZ NSC 23/21 Q1014 NOSIG

Hora: 20:54 (15:24 UTC)

Pronòstic

L'informe es va fer fa 1 hora i 24 minuts, a les 14:00 UTC
Pronòstic vàlid del 15 a les 15 UTC al 15 a les 24 UTC
Vent kt del Nord
Visibilitat: 2000 m
calitja, boirina

TAF: VEBS 151400Z 1515/1524 00000KT 2500 HZ NSC 1520/1522 2000 BR

Observacions i pronòstics meteorològics de més de 4000 aeroports (METAR i TAF).

Les estacions disponibles són els punts grocs i vermells al mapa.

Posi el ratolí al punt desitjat per veure el nom de l'estació.

Feu clic per veure les observacions i els pronòstics meteorològics.

Per canviar el mapa: feu clic els botons verds amb una creu de color negre per apropar; al botó verd amb un guió per allunyar la imatge; o en les fletxes verdes per a mapes adjacents.


METAR-TAF: